Time;durP1;ratioP1;P1;durP2;ratioP2;P2;SDS_P1;SDS_P2;PMS_P1;PMS_P2;Temp;Humidity;BMP_temperature;BMP_pressure;BME280_temperature;BME280_humidity;BME280_pressure;Samples;Min_cycle;Max_cycle;Signal;HPM_P1;HPM_P2
2023/01/01 00:00:16;;;;;;;15.73;11.13;;;10.30;63.00;;;;;;6084127;23;114992;-83
2023/01/01 00:02:43;;;;;;;12.43;10.05;;;10.30;62.90;;;;;;6084163;23;114726;-83
2023/01/01 00:05:10;;;;;;;13.50;9.95;;;10.40;62.90;;;;;;6111673;23;114618;-82
2023/01/01 00:07:37;;;;;;;13.05;9.20;;;10.40;62.80;;;;;;6085513;23;114524;-82
2023/01/01 00:12:51;;;;;;;12.02;7.95;;;10.40;62.70;;;;;;6110212;23;114625;-82
2023/01/01 00:15:18;;;;;;;11.05;8.40;;;10.40;62.70;;;;;;6085181;23;114920;-83
2023/01/01 00:17:52;;;;;;;12.00;8.27;;;10.50;62.60;;;;;;6087036;23;114404;-83
2023/01/01 00:20:20;;;;;;;11.73;8.40;;;10.50;62.60;;;;;;6109915;23;115110;-83
2023/01/01 00:22:47;;;;;;;12.73;7.85;;;10.40;62.50;;;;;;6110294;23;115037;-83
2023/01/01 00:25:36;;;;;;;11.55;7.65;;;10.50;62.40;;;;;;6062556;23;114337;-83
2023/01/01 00:28:04;;;;;;;11.15;7.30;;;10.50;62.40;;;;;;6088301;23;115350;-83
2023/01/01 00:30:31;;;;;;;9.48;6.43;;;10.50;62.40;;;;;;6110615;23;115525;-83
2023/01/01 00:32:58;;;;;;;9.80;6.82;;;10.50;62.30;;;;;;6110372;23;114908;-83
2023/01/01 00:35:25;;;;;;;10.23;6.55;;;10.60;62.20;;;;;;6061254;23;114697;-83
2023/01/01 00:37:53;;;;;;;9.30;6.47;;;10.50;62.10;;;;;;6080142;23;114600;-84
2023/01/01 00:40:20;;;;;;;8.85;6.38;;;10.60;62.10;;;;;;6079105;23;115759;-83
2023/01/01 00:42:48;;;;;;;10.13;7.03;;;10.60;62.10;;;;;;6078960;23;114573;-84
2023/01/01 00:45:18;;;;;;;10.07;7.05;;;10.60;62.00;;;;;;6080860;23;115438;-84
2023/01/01 00:47:52;;;;;;;9.23;6.55;;;10.60;62.00;;;;;;6080202;23;114607;-82
2023/01/01 00:50:20;;;;;;;9.63;7.03;;;10.60;61.90;;;;;;6007248;23;115905;-84
2023/01/01 00:52:48;;;;;;;9.45;6.32;;;10.60;62.00;;;;;;6078902;23;114548;-84
2023/01/01 00:55:15;;;;;;;9.85;6.32;;;10.60;62.00;;;;;;6080290;23;114645;-84
2023/01/01 00:57:42;;;;;;;10.35;6.32;;;10.60;61.90;;;;;;6080470;23;114480;-85
2023/01/01 01:00:11;;;;;;;9.77;6.85;;;10.60;62.00;;;;;;6079534;23;115076;-84
2023/01/01 01:02:38;;;;;;;9.38;6.65;;;10.60;61.90;;;;;;6087042;23;114445;-84
2023/01/01 01:05:08;;;;;;;9.48;6.45;;;10.60;61.80;;;;;;6090968;23;114399;-84
2023/01/01 01:07:35;;;;;;;9.88;6.55;;;10.60;61.80;;;;;;6085921;23;115962;-83
2023/01/01 01:10:03;;;;;;;8.52;6.32;;;10.70;61.70;;;;;;6054980;23;114661;-84
2023/01/01 01:12:30;;;;;;;11.55;6.75;;;10.70;61.70;;;;;;6080229;23;114545;-83
2023/01/01 01:14:57;;;;;;;9.73;6.80;;;10.70;61.70;;;;;;6080314;23;114424;-84
2023/01/01 01:17:25;;;;;;;9.30;6.35;;;10.70;61.70;;;;;;6080312;23;114663;-83
2023/01/01 01:19:52;;;;;;;10.95;6.10;;;10.70;61.70;;;;;;6054635;23;115139;-83
2023/01/01 01:22:19;;;;;;;8.88;6.72;;;10.70;61.70;;;;;;6080374;23;115119;-84
2023/01/01 01:24:54;;;;;;;9.95;6.40;;;10.70;61.60;;;;;;6080365;23;114627;-83
2023/01/01 01:27:22;;;;;;;9.15;6.30;;;10.70;61.70;;;;;;6082050;23;114425;-83
2023/01/01 01:29:50;;;;;;;8.68;6.28;;;10.70;61.70;;;;;;6055061;23;114971;-84
2023/01/01 01:32:17;;;;;;;9.07;5.85;;;10.70;61.60;;;;;;6078700;23;114533;-83
2023/01/01 01:34:44;;;;;;;8.70;6.00;;;10.70;61.60;;;;;;6079337;23;114669;-84
2023/01/01 01:37:11;;;;;;;10.02;5.85;;;10.70;61.50;;;;;;6097619;23;114719;-84
2023/01/01 01:39:40;;;;;;;8.98;6.03;;;10.70;61.40;;;;;;6109633;23;116205;-84
2023/01/01 01:42:14;;;;;;;9.43;6.22;;;10.70;61.30;;;;;;6108551;23;114598;-83
2023/01/01 01:44:45;;;;;;;9.00;6.22;;;10.70;61.30;;;;;;6085857;23;114460;-84
2023/01/01 01:47:41;;;;;;;8.57;6.63;;;10.70;61.30;;;;;;6084752;23;114641;-84
2023/01/01 01:50:12;;;;;;;8.80;5.95;;;10.70;61.30;;;;;;6062850;23;114953;-84
2023/01/01 01:52:46;;;;;;;9.38;6.30;;;10.70;61.40;;;;;;6060143;23;114823;-84
2023/01/01 01:55:13;;;;;;;9.35;6.43;;;10.70;61.30;;;;;;6062847;23;114344;-83
2023/01/01 01:57:40;;;;;;;9.60;5.82;;;10.60;61.40;;;;;;6037404;23;114576;-84
2023/01/01 02:00:09;;;;;;;9.52;6.32;;;10.70;61.40;;;;;;6084232;23;115121;-84
2023/01/01 02:02:47;;;;;;;9.20;5.80;;;10.60;61.30;;;;;;6036471;23;117864;-83
2023/01/01 02:05:14;;;;;;;10.90;6.13;;;10.60;61.20;;;;;;6039941;23;114511;-84
2023/01/01 02:07:42;;;;;;;8.88;6.72;;;10.60;61.30;;;;;;6085991;23;114399;-83
2023/01/01 02:10:09;;;;;;;9.55;5.90;;;10.60;61.30;;;;;;6035984;23;116675;-83
2023/01/01 02:12:36;;;;;;;7.78;5.50;;;10.60;61.20;;;;;;6110808;23;115538;-83
2023/01/01 02:15:05;;;;;;;8.90;5.93;;;10.60;61.10;;;;;;6061905;23;114616;-84
2023/01/01 02:18:10;;;;;;;8.77;6.32;;;10.70;61.10;;;;;;6086751;23;114717;-83
2023/01/01 02:20:43;;;;;;;;;;;10.70;60.90;;;;;;6085533;23;115179;-84
2023/01/01 02:23:31;;;;;;;7.55;5.65;;;10.60;61.40;;;;;;6060384;23;114637;-83
2023/01/01 02:26:37;;;;;;;7.82;5.28;;;10.60;61.20;;;;;;6059718;23;114678;-84
2023/01/01 02:29:44;;;;;;;8.00;5.22;;;10.60;60.90;;;;;;6087564;23;114539;-84
2023/01/01 02:32:21;;;;;;;9.07;5.28;;;10.70;60.80;;;;;;6006559;23;115074;-84
2023/01/01 02:35:33;;;;;;;6.38;4.35;;;10.70;60.60;;;;;;6037116;23;114619;-84
2023/01/01 02:37:49;;;;;;;7.65;4.95;;;10.70;60.30;;;;;;6111603;23;114881;-83
2023/01/01 02:40:17;;;;;;;7.35;4.00;;;10.70;60.30;;;;;;6062032;23;114613;-84
2023/01/01 02:42:44;;;;;;;6.95;5.03;;;10.70;60.00;;;;;;6012825;23;116156;-84
2023/01/01 02:45:12;;;;;;;7.25;4.75;;;10.80;59.80;;;;;;6060656;23;114697;-83
2023/01/01 02:47:39;;;;;;;6.10;4.40;;;10.90;59.70;;;;;;6085716;23;114504;-84
2023/01/01 02:50:24;;;;;;;7.93;4.72;;;11.00;59.40;;;;;;6111889;23;114540;-84
2023/01/01 02:53:13;;;;;;;7.05;4.70;;;11.00;58.90;;;;;;6035256;23;115133;-84
2023/01/01 02:55:52;;;;;;;7.15;4.63;;;11.00;59.00;;;;;;6088286;23;114705;-84
2023/01/01 03:01:28;;;;;;;7.55;4.47;;;11.10;58.70;;;;;;6089751;23;114845;-84
2023/01/01 03:04:07;;;;;;;7.38;4.35;;;11.10;58.70;;;;;;6086412;23;115054;-84
2023/01/01 03:07:05;;;;;;;8.18;4.65;;;11.10;58.70;;;;;;6038154;23;115114;-84
2023/01/01 03:09:47;;;;;;;7.32;4.40;;;11.20;58.60;;;;;;6040244;23;114678;-84
2023/01/01 03:12:58;;;;;;;6.63;4.30;;;11.10;58.40;;;;;;6063156;23;114927;-83
2023/01/01 03:16:09;;;;;;;6.65;4.30;;;11.20;58.30;;;;;;6038228;23;115227;-85
2023/01/01 03:19:13;;;;;;;5.70;4.03;;;11.10;58.20;;;;;;5962502;23;114723;-85
2023/01/01 03:21:57;;;;;;;6.20;4.20;;;11.20;58.20;;;;;;6051479;23;114411;-83
2023/01/01 03:24:32;;;;;;;7.97;4.55;;;11.20;58.10;;;;;;6111529;23;115215;-82
2023/01/01 03:27:03;;;;;;;7.57;4.60;;;11.20;58.00;;;;;;6060501;23;115185;-83
2023/01/01 03:29:33;;;;;;;7.18;4.72;;;11.20;58.00;;;;;;6060010;23;114618;-83
2023/01/01 03:32:02;;;;;;;8.30;4.60;;;11.20;58.00;;;;;;6038349;23;114495;-83
2023/01/01 03:34:43;;;;;;;6.57;4.30;;;11.20;57.80;;;;;;6061742;23;115618;-83
2023/01/01 03:37:14;;;;;;;5.53;4.13;;;11.30;57.60;;;;;;6033905;23;115040;-82
2023/01/01 03:39:49;;;;;;;5.90;3.95;;;11.30;57.10;;;;;;6079710;23;114865;-83
2023/01/01 03:42:38;;;;;;;6.03;4.00;;;11.40;57.00;;;;;;6080907;23;114540;-84
2023/01/01 03:45:16;;;;;;;6.50;3.92;;;11.40;57.10;;;;;;6035842;23;114490;-83
2023/01/01 03:47:43;;;;;;;7.10;4.38;;;11.40;57.00;;;;;;6078995;23;115109;-84
2023/01/01 03:50:10;;;;;;;7.30;4.13;;;11.40;57.30;;;;;;6031028;23;117376;-83
2023/01/01 03:53:09;;;;;;;6.53;4.03;;;11.40;57.20;;;;;;6080357;23;114828;-83
2023/01/01 03:55:41;;;;;;;7.18;4.32;;;11.50;57.20;;;;;;6067567;23;114687;-84
2023/01/01 03:59:16;;;;;;;6.93;4.53;;;11.40;57.30;;;;;;6079588;23;115039;-83
2023/01/01 04:01:47;;;;;;;6.68;4.25;;;11.50;57.20;;;;;;5938931;23;114874;-83
2023/01/01 04:04:15;;;;;;;6.97;4.85;;;11.30;57.60;;;;;;6022015;23;114526;-83
2023/01/01 04:06:42;;;;;;;7.25;4.53;;;11.30;57.70;;;;;;6056774;23;114745;-82
2023/01/01 04:09:16;;;;;;;7.53;4.30;;;11.20;57.70;;;;;;6079447;23;115294;-82
2023/01/01 04:12:03;;;;;;;8.15;4.93;;;11.20;57.80;;;;;;6056298;23;115354;-83
2023/01/01 04:14:39;;;;;;;7.40;4.68;;;11.20;57.90;;;;;;6039407;23;115834;-83
2023/01/01 04:17:08;;;;;;;9.20;4.72;;;11.20;58.00;;;;;;6055829;23;114638;-82
2023/01/01 04:19:35;;;;;;;8.10;4.70;;;11.10;58.20;;;;;;6080635;23;114994;-83
2023/01/01 04:22:03;;;;;;;9.15;5.53;;;11.10;58.30;;;;;;6079248;23;114812;-83
2023/01/01 04:24:30;;;;;;;9.90;5.18;;;11.10;58.30;;;;;;6080203;23;114602;-83
2023/01/01 04:26:57;;;;;;;9.48;5.50;;;11.00;58.40;;;;;;6081986;23;114577;-83
2023/01/01 04:29:24;;;;;;;8.43;6.28;;;11.00;58.60;;;;;;6079105;23;118084;-82
2023/01/01 04:31:52;;;;;;;10.73;6.00;;;11.00;58.60;;;;;;6081297;23;114829;-83
2023/01/01 04:34:19;;;;;;;9.23;6.32;;;11.00;58.70;;;;;;6081572;23;114691;-84
2023/01/01 04:36:46;;;;;;;9.75;6.07;;;10.90;58.80;;;;;;6080138;23;114410;-83
2023/01/01 04:39:13;;;;;;;9.35;6.63;;;10.90;58.90;;;;;;6080036;23;115092;-83
2023/01/01 04:41:40;;;;;;;10.35;6.88;;;10.90;59.00;;;;;;6054805;23;114936;-83
2023/01/01 04:44:08;;;;;;;11.98;7.25;;;10.80;59.20;;;;;;6081774;23;114412;-83
2023/01/01 04:46:35;;;;;;;13.18;7.32;;;10.80;59.30;;;;;;6080393;23;114549;-83
2023/01/01 04:49:02;;;;;;;9.75;7.00;;;10.70;59.40;;;;;;6080382;23;116767;-83
2023/01/01 04:51:29;;;;;;;11.32;7.32;;;10.70;59.60;;;;;;6080539;23;114480;-83
2023/01/01 04:53:58;;;;;;;10.73;7.82;;;10.70;59.70;;;;;;6080106;23;114784;-83
2023/01/01 04:56:26;;;;;;;12.15;8.48;;;10.60;59.90;;;;;;6082283;23;114569;-83
2023/01/01 04:58:54;;;;;;;10.68;7.50;;;10.60;60.10;;;;;;6078986;23;115157;-82
2023/01/01 05:01:23;;;;;;;10.40;7.65;;;10.60;60.20;;;;;;6079026;23;114648;-82
2023/01/01 05:03:50;;;;;;;10.25;8.15;;;10.50;60.40;;;;;;6055624;23;114860;-83
2023/01/01 05:06:19;;;;;;;11.85;8.60;;;10.50;60.60;;;;;;6056045;23;114672;-83
2023/01/01 05:08:48;;;;;;;13.57;9.10;;;10.40;60.70;;;;;;6054927;23;115081;-83
2023/01/01 05:11:17;;;;;;;13.70;9.55;;;10.40;60.90;;;;;;6055121;23;115799;-83
2023/01/01 05:13:47;;;;;;;13.20;8.95;;;10.30;60.90;;;;;;6056137;23;116166;-84
2023/01/01 05:16:17;;;;;;;12.75;9.20;;;10.30;61.30;;;;;;6080175;23;114440;-84
2023/01/01 05:18:44;;;;;;;12.40;9.07;;;10.20;61.50;;;;;;6055357;23;115358;-84
2023/01/01 05:21:20;;;;;;;12.10;8.43;;;10.20;61.50;;;;;;6054966;23;114823;-83
2023/01/01 05:23:47;;;;;;;13.15;8.70;;;10.20;61.50;;;;;;6033449;23;114834;-84
2023/01/01 05:26:20;;;;;;;15.90;9.63;;;10.10;61.60;;;;;;6080258;23;114621;-84
2023/01/01 05:28:47;;;;;;;13.07;9.20;;;10.00;61.90;;;;;;6079619;23;115024;-83
2023/01/01 05:31:17;;;;;;;13.35;9.38;;;9.90;61.90;;;;;;6079925;23;115343;-83
2023/01/01 05:33:44;;;;;;;13.40;9.35;;;9.90;62.10;;;;;;6079644;23;115555;-82
2023/01/01 05:36:20;;;;;;;13.52;9.30;;;9.80;62.30;;;;;;6085234;23;114761;-81
2023/01/01 05:38:48;;;;;;;14.65;10.10;;;9.90;62.50;;;;;;6109844;23;115100;-82
2023/01/01 05:41:16;;;;;;;12.32;8.93;;;9.80;62.60;;;;;;6035305;23;114800;-83
2023/01/01 05:43:43;;;;;;;14.45;9.13;;;9.80;62.80;;;;;;6060570;23;114676;-84
2023/01/01 05:46:16;;;;;;;14.48;9.88;;;9.80;62.70;;;;;;6111559;23;114363;-83
2023/01/01 05:48:43;;;;;;;13.43;9.18;;;9.70;62.80;;;;;;6084971;23;114998;-83
2023/01/01 05:51:17;;;;;;;13.88;9.80;;;9.70;63.00;;;;;;6083286;23;114860;-83
2023/01/01 05:53:44;;;;;;;14.35;9.70;;;9.70;63.00;;;;;;6084312;23;114367;-83
2023/01/01 05:56:12;;;;;;;16.45;10.77;;;9.70;62.90;;;;;;6111035;23;114414;-83
2023/01/01 05:58:39;;;;;;;14.50;9.45;;;9.70;63.10;;;;;;6109675;23;115063;-83
2023/01/01 06:01:15;;;;;;;17.20;10.18;;;9.70;63.20;;;;;;6035737;23;114844;-83
2023/01/01 06:03:43;;;;;;;15.35;10.05;;;9.70;63.30;;;;;;6086034;23;114498;-82
2023/01/01 06:06:14;;;;;;;14.73;10.15;;;9.70;63.30;;;;;;6036819;23;114364;-82
2023/01/01 06:08:41;;;;;;;14.80;9.45;;;9.70;63.40;;;;;;6109870;23;115065;-82
2023/01/01 06:11:10;;;;;;;19.40;13.68;;;9.60;63.50;;;;;;6059835;23;114642;-82
2023/01/01 06:13:38;;;;;;;22.10;13.68;;;9.60;63.50;;;;;;6060688;23;114788;-82
2023/01/01 06:16:05;;;;;;;19.77;13.38;;;9.60;63.40;;;;;;6084554;23;114399;-81
2023/01/01 06:18:33;;;;;;;19.40;14.23;;;9.60;63.50;;;;;;6100852;23;115201;-82
2023/01/01 06:21:08;;;;;;;18.10;11.75;;;9.60;63.40;;;;;;6082339;23;114709;-81
2023/01/01 06:23:36;;;;;;;16.17;9.68;;;9.70;63.30;;;;;;6084194;23;114430;-82
2023/01/01 06:26:05;;;;;;;15.02;9.75;;;9.70;63.00;;;;;;6110344;23;114328;-81
2023/01/01 06:28:32;;;;;;;12.75;8.25;;;9.70;62.90;;;;;;6083354;23;115623;-82
2023/01/01 06:31:04;;;;;;;10.57;6.82;;;9.80;62.70;;;;;;6109546;23;115234;-82
2023/01/01 06:33:31;;;;;;;11.65;7.70;;;9.90;62.40;;;;;;6059901;23;114433;-82
2023/01/01 06:36:01;;;;;;;13.05;8.85;;;9.90;62.30;;;;;;6110778;23;115753;-82
2023/01/01 06:38:36;;;;;;;11.82;8.05;;;10.00;62.10;;;;;;6083505;23;115138;-82
2023/01/01 06:41:14;;;;;;;10.45;6.75;;;10.10;61.90;;;;;;6084425;23;115125;-82
2023/01/01 06:43:42;;;;;;;8.75;6.90;;;10.10;61.80;;;;;;6111272;23;114611;-82
2023/01/01 06:46:35;;;;;;;10.73;8.32;;;10.10;61.80;;;;;;6110257;23;114476;-82
2023/01/01 06:49:09;;;;;;;13.30;10.20;;;10.20;61.70;;;;;;6088386;23;116586;-82
2023/01/01 06:51:41;;;;;;;;;;;10.20;61.80;;;;;;6036996;23;114593;-82
2023/01/01 06:54:08;;;;;;;17.58;13.95;;;10.10;61.90;;;;;;6062348;23;114402;-83
2023/01/01 06:56:36;;;;;;;16.60;13.13;;;10.10;62.10;;;;;;6061392;23;114430;-82
2023/01/01 06:59:03;;;;;;;24.50;16.27;;;10.20;62.00;;;;;;6060365;23;115140;-82
2023/01/01 07:01:32;;;;;;;16.60;13.50;;;10.10;62.00;;;;;;6060828;23;114964;-82
2023/01/01 07:04:02;;;;;;;15.32;11.02;;;10.20;61.90;;;;;;6111966;23;115388;-82
2023/01/01 07:06:30;;;;;;;12.05;8.75;;;10.20;61.80;;;;;;6061062;23;114650;-82
2023/01/01 07:08:57;;;;;;;12.77;8.32;;;10.20;61.80;;;;;;6083965;23;115259;-82
2023/01/01 07:11:25;;;;;;;9.80;7.18;;;10.20;61.70;;;;;;6060255;23;114857;-82
2023/01/01 07:13:52;;;;;;;9.70;6.45;;;10.20;61.60;;;;;;6061474;23;114967;-83
2023/01/01 07:16:20;;;;;;;10.57;6.70;;;10.20;61.50;;;;;;6111852;23;114441;-82
2023/01/01 07:18:49;;;;;;;9.93;6.32;;;10.20;61.50;;;;;;6084084;23;115079;-82
2023/01/01 07:21:33;;;;;;;11.23;6.40;;;10.20;61.60;;;;;;6110689;23;114522;-82
2023/01/01 07:24:02;;;;;;;12.67;6.70;;;10.20;61.70;;;;;;6061705;23;114619;-82
2023/01/01 07:26:30;;;;;;;9.60;6.57;;;10.20;61.70;;;;;;6062533;23;114471;-83
2023/01/01 07:28:59;;;;;;;10.10;6.07;;;10.20;61.70;;;;;;6084918;23;115257;-82
2023/01/01 07:31:38;;;;;;;7.85;5.65;;;10.20;61.70;;;;;;6086089;23;114717;-82
2023/01/01 07:34:06;;;;;;;9.20;5.63;;;10.20;61.60;;;;;;6060793;23;114865;-83
2023/01/01 07:36:33;;;;;;;8.35;6.18;;;10.20;61.60;;;;;;6055814;23;114724;-82
2023/01/01 07:39:01;;;;;;;9.57;6.10;;;10.20;61.50;;;;;;6079086;23;115211;-81
2023/01/01 07:41:28;;;;;;;10.55;6.60;;;10.20;61.40;;;;;;6078959;23;114750;-82
2023/01/01 07:43:55;;;;;;;8.77;6.13;;;10.30;61.40;;;;;;6056066;23;114539;-83
2023/01/01 07:46:22;;;;;;;9.40;5.93;;;10.30;61.30;;;;;;6081949;23;114690;-84
2023/01/01 07:48:50;;;;;;;9.27;6.40;;;10.30;61.20;;;;;;6080675;23;114974;-83
2023/01/01 07:51:17;;;;;;;8.77;6.43;;;10.40;61.20;;;;;;6079702;23;114778;-83
2023/01/01 07:53:44;;;;;;;9.10;6.53;;;10.30;61.20;;;;;;6081543;23;115110;-83
2023/01/01 07:56:11;;;;;;;9.60;6.70;;;10.40;61.20;;;;;;6081540;23;114409;-83
2023/01/01 07:58:41;;;;;;;11.07;6.72;;;10.40;61.20;;;;;;6079838;23;115134;-83
2023/01/01 08:01:11;;;;;;;9.70;7.05;;;10.50;61.20;;;;;;6054854;23;114582;-82
2023/01/01 08:03:39;;;;;;;11.10;7.50;;;10.40;61.30;;;;;;6081976;23;115327;-82
2023/01/01 08:06:11;;;;;;;9.65;6.55;;;10.40;61.30;;;;;;6031790;23;114431;-83
2023/01/01 08:08:39;;;;;;;9.90;6.97;;;10.50;61.30;;;;;;6054925;23;115735;-83
2023/01/01 08:11:07;;;;;;;13.27;6.70;;;10.50;61.30;;;;;;6079179;23;115079;-83
2023/01/01 08:13:34;;;;;;;11.55;6.93;;;10.50;61.20;;;;;;6079938;23;114545;-83
2023/01/01 08:16:01;;;;;;;11.38;6.95;;;10.50;61.30;;;;;;6080272;23;114760;-83
2023/01/01 08:18:29;;;;;;;8.57;6.55;;;10.50;61.40;;;;;;6080497;23;115491;-84
2023/01/01 08:20:56;;;;;;;13.45;7.68;;;10.50;61.40;;;;;;6078703;23;117464;-82
2023/01/01 08:23:23;;;;;;;11.10;7.75;;;10.50;61.40;;;;;;6055211;23;114544;-82
2023/01/01 08:25:51;;;;;;;10.95;7.60;;;10.50;61.40;;;;;;6055967;23;114618;-84
2023/01/01 08:28:18;;;;;;;11.07;7.43;;;10.50;61.50;;;;;;6080340;23;115189;-83
2023/01/01 08:30:45;;;;;;;11.63;6.93;;;10.50;61.50;;;;;;6078811;23;114828;-83
2023/01/01 08:33:12;;;;;;;13.50;7.85;;;10.50;61.40;;;;;;6081642;23;114677;-82
2023/01/01 08:35:40;;;;;;;13.85;8.00;;;10.50;61.40;;;;;;6007303;23;114752;-82
2023/01/01 08:38:10;;;;;;;13.70;8.02;;;10.50;61.50;;;;;;6030145;23;115088;-83
2023/01/01 08:40:38;;;;;;;11.27;7.15;;;10.50;61.50;;;;;;6030434;23;115362;-82
2023/01/01 08:43:05;;;;;;;10.98;6.88;;;10.50;61.60;;;;;;6081689;23;114680;-83
2023/01/01 08:45:32;;;;;;;11.18;7.47;;;10.50;61.40;;;;;;6079817;23;114773;-81
2023/01/01 08:47:59;;;;;;;10.57;7.65;;;10.50;61.40;;;;;;6079323;23;115106;-83
2023/01/01 08:50:27;;;;;;;11.90;7.35;;;10.50;61.50;;;;;;6054222;23;114887;-83
2023/01/01 08:52:54;;;;;;;12.85;7.82;;;10.50;61.50;;;;;;6055021;23;114941;-83
2023/01/01 08:55:21;;;;;;;12.68;7.85;;;10.50;61.50;;;;;;6055247;23;114749;-82
2023/01/01 08:57:49;;;;;;;11.23;7.25;;;10.50;61.50;;;;;;6054559;23;117635;-82
2023/01/01 09:00:16;;;;;;;10.55;6.90;;;10.50;61.50;;;;;;6080082;23;115669;-83
2023/01/01 09:02:44;;;;;;;11.43;6.68;;;10.50;61.40;;;;;;6079834;23;114660;-83
2023/01/01 09:05:11;;;;;;;9.60;7.10;;;10.40;61.40;;;;;;6080720;23;114377;-82
2023/01/01 09:07:38;;;;;;;11.88;6.85;;;10.40;61.60;;;;;;6078620;23;115057;-83
2023/01/01 09:10:06;;;;;;;9.80;6.68;;;10.40;61.60;;;;;;6081764;23;114718;-84
2023/01/01 09:12:34;;;;;;;8.43;5.50;;;10.40;61.50;;;;;;6079392;23;115593;-85
2023/01/01 09:15:02;;;;;;;7.57;5.57;;;10.40;61.50;;;;;;6078259;23;114732;-83
2023/01/01 09:17:29;;;;;;;8.82;5.78;;;10.40;61.50;;;;;;6078995;23;115071;-82
2023/01/01 09:19:57;;;;;;;8.63;5.97;;;10.40;61.50;;;;;;6054100;23;114643;-82
2023/01/01 09:22:25;;;;;;;9.95;6.18;;;10.40;61.50;;;;;;6055394;23;114553;-84
2023/01/01 09:24:53;;;;;;;7.25;5.38;;;10.40;61.50;;;;;;6054665;23;114672;-84
2023/01/01 09:27:20;;;;;;;7.05;5.40;;;10.40;61.60;;;;;;6054853;23;115093;-82
2023/01/01 09:29:47;;;;;;;7.18;5.30;;;10.40;61.60;;;;;;6082381;23;114581;-84
2023/01/01 09:32:14;;;;;;;8.38;5.43;;;10.50;61.50;;;;;;6082161;23;114555;-84
2023/01/01 09:34:42;;;;;;;7.60;4.95;;;10.50;61.30;;;;;;6082278;23;114739;-84
2023/01/01 09:37:18;;;;;;;8.45;5.93;;;10.60;61.30;;;;;;6078211;23;115710;-83
2023/01/01 09:39:48;;;;;;;8.30;5.32;;;10.70;61.30;;;;;;6079819;23;114549;-83
2023/01/01 09:42:38;;;;;;;7.50;5.50;;;10.80;61.10;;;;;;6058108;23;114539;-83
2023/01/01 09:45:27;;;;;;;9.00;5.93;;;10.90;60.70;;;;;;6058081;23;114595;-83
2023/01/01 09:48:06;;;;;;;8.02;5.30;;;11.00;60.60;;;;;;6056130;23;115034;-83
2023/01/01 09:50:39;;;;;;;7.40;5.20;;;11.20;60.40;;;;;;6055967;23;115851;-83
2023/01/01 09:53:29;;;;;;;7.93;4.90;;;11.20;59.90;;;;;;6057130;23;114403;-83
2023/01/01 09:56:01;;;;;;;7.38;5.05;;;11.30;59.90;;;;;;6061170;23;114530;-84
2023/01/01 09:58:34;;;;;;;8.20;5.45;;;11.40;59.80;;;;;;6032871;23;115049;-84
2023/01/01 10:01:24;;;;;;;8.00;5.28;;;11.50;59.60;;;;;;6079815;23;115748;-83
2023/01/01 10:03:59;;;;;;;10.15;5.57;;;11.60;59.30;;;;;;6058041;23;115215;-86
2023/01/01 10:06:27;;;;;;;8.88;5.95;;;11.70;59.30;;;;;;6034102;23;114356;-84
2023/01/01 10:09:47;;;;;;;8.30;5.55;;;11.70;59.20;;;;;;6056527;23;116436;-84
2023/01/01 10:12:40;;;;;;;7.07;4.85;;;11.80;58.90;;;;;;6054184;23;115022;-84
2023/01/01 10:15:22;;;;;;;7.25;4.88;;;11.90;58.80;;;;;;6081619;23;114411;-83
2023/01/01 10:17:53;;;;;;;7.35;5.30;;;12.00;58.60;;;;;;6058695;23;114235;-84
2023/01/01 10:20:41;;;;;;;9.15;6.20;;;12.00;58.50;;;;;;6080577;23;115589;-82
2023/01/01 10:23:17;;;;;;;9.88;6.72;;;12.10;58.30;;;;;;6060797;23;114596;-83
2023/01/01 10:25:47;;;;;;;11.80;7.00;;;12.20;58.20;;;;;;6084327;23;114830;-83
2023/01/01 10:28:39;;;;;;;12.50;7.68;;;12.20;58.20;;;;;;6071489;23;114627;-83
2023/01/01 10:31:21;;;;;;;12.75;7.47;;;12.30;58.00;;;;;;6075999;23;115731;-83
2023/01/01 10:33:49;;;;;;;12.57;8.10;;;12.40;57.90;;;;;;6088647;23;114491;-84
2023/01/01 10:36:17;;;;;;;15.00;8.60;;;12.40;58.00;;;;;;6091025;23;114388;-83
2023/01/01 10:38:47;;;;;;;14.75;8.18;;;12.50;57.80;;;;;;6064030;23;114357;-85
2023/01/01 10:41:16;;;;;;;13.05;7.70;;;12.50;57.50;;;;;;6086770;23;115140;-84
2023/01/01 10:43:46;;;;;;;11.57;7.53;;;12.60;57.50;;;;;;6063198;23;114919;-83
2023/01/01 10:46:17;;;;;;;8.95;6.25;;;12.70;57.30;;;;;;6062788;23;114383;-83
2023/01/01 10:49:09;;;;;;;9.80;5.97;;;12.70;57.00;;;;;;6087342;23;115535;-82
2023/01/01 10:51:47;;;;;;;13.75;6.88;;;12.80;56.80;;;;;;6086694;23;115228;-83
2023/01/01 10:54:37;;;;;;;8.40;6.30;;;12.80;56.90;;;;;;6064153;23;114837;-84
2023/01/01 10:57:25;;;;;;;14.63;7.10;;;12.90;56.70;;;;;;6062526;23;114547;-83
2023/01/01 10:59:53;;;;;;;13.20;6.75;;;13.00;56.80;;;;;;6114455;23;114244;-83
2023/01/01 11:02:26;;;;;;;11.73;6.72;;;13.00;56.50;;;;;;6062286;23;115104;-83
2023/01/01 11:05:32;;;;;;;12.55;7.10;;;13.10;56.50;;;;;;6062741;23;114573;-84
2023/01/01 11:07:59;;;;;;;14.68;7.35;;;13.20;56.70;;;;;;5941997;23;114633;-84
2023/01/01 11:10:29;;;;;;;12.73;6.72;;;13.20;56.60;;;;;;5918365;23;114806;-83
2023/01/01 11:12:57;;;;;;;11.35;6.60;;;13.20;56.20;;;;;;5991929;23;115485;-83
2023/01/01 11:15:38;;;;;;;10.35;7.32;;;13.20;56.10;;;;;;6065512;23;114728;-84
2023/01/01 11:18:24;;;;;;;10.87;6.63;;;13.30;56.10;;;;;;6087364;23;114309;-85
2023/01/01 11:20:56;;;;;;;13.15;6.93;;;13.40;56.10;;;;;;6067591;23;116090;-84
2023/01/01 11:23:37;;;;;;;11.32;6.00;;;13.40;56.00;;;;;;6059994;23;115589;-84
2023/01/01 11:26:19;;;;;;;11.43;6.45;;;13.50;55.70;;;;;;6061583;23;115055;-84
2023/01/01 11:29:28;;;;;;;13.13;7.28;;;13.50;55.80;;;;;;6111598;23;114464;-83
2023/01/01 11:31:56;;;;;;;11.60;7.10;;;13.60;55.90;;;;;;5964494;23;114472;-83
2023/01/01 11:34:35;;;;;;;9.95;6.40;;;13.60;55.90;;;;;;5996247;23;118523;-84
2023/01/01 11:37:28;;;;;;;9.45;5.75;;;13.60;55.50;;;;;;6111415;23;115063;-84
2023/01/01 11:39:56;;;;;;;10.02;5.85;;;13.70;55.50;;;;;;6094775;23;114715;-83
2023/01/01 11:42:33;;;;;;;14.32;6.63;;;13.60;55.40;;;;;;6087271;23;114421;-84
2023/01/01 11:45:19;;;;;;;13.07;6.03;;;13.60;55.40;;;;;;6063261;23;116536;-84
2023/01/01 11:47:57;;;;;;;12.52;6.03;;;13.70;55.40;;;;;;6089339;23;114791;-83
2023/01/01 11:50:37;;;;;;;11.50;6.45;;;13.70;55.40;;;;;;6085551;23;114625;-82
2023/01/01 11:53:38;;;;;;;11.18;7.10;;;13.70;55.40;;;;;;6041308;23;114409;-84
2023/01/01 11:56:17;;;;;;;12.98;6.85;;;13.80;55.40;;;;;;6111233;23;115634;-83
2023/01/01 11:59:01;;;;;;;14.02;7.90;;;13.70;55.30;;;;;;6061038;23;116292;-82
2023/01/01 12:01:46;;;;;;;11.87;6.67;;;13.80;55.20;;;;;;6039689;23;114775;-83
2023/01/01 12:04:46;;;;;;;13.80;6.90;;;13.80;55.20;;;;;;6041708;23;115467;-84
2023/01/01 12:07:18;;;;;;;14.18;6.70;;;13.80;55.10;;;;;;6064793;23;115705;-85
2023/01/01 12:10:01;;;;;;;11.65;6.47;;;13.70;55.20;;;;;;6048140;23;118835;-86
2023/01/01 12:12:42;;;;;;;12.60;7.30;;;13.80;55.40;;;;;;6001682;23;114447;-84
2023/01/01 12:15:29;;;;;;;12.90;7.10;;;13.80;55.30;;;;;;6049730;23;114742;-86
2023/01/01 12:18:33;;;;;;;11.05;7.03;;;13.80;55.30;;;;;;6047011;23;115445;-84
2023/01/01 12:21:23;;;;;;;12.20;7.43;;;13.80;55.20;;;;;;6023487;23;117829;-85
2023/01/01 12:23:50;;;;;;;12.20;5.85;;;13.80;55.20;;;;;;6049501;23;115548;-84
2023/01/01 12:26:30;;;;;;;11.98;6.57;;;13.80;55.30;;;;;;6028440;23;115151;-87
2023/01/01 12:29:30;;;;;;;13.70;6.70;;;13.80;55.10;;;;;;6061781;23;115296;-84
2023/01/01 12:32:18;;;;;;;13.18;6.90;;;13.90;55.00;;;;;;6048781;23;114335;-85
2023/01/01 12:35:30;;;;;;;13.68;7.07;;;14.00;55.00;;;;;;6052575;23;114625;-84
2023/01/01 12:38:29;;;;;;;10.68;7.07;;;14.10;55.00;;;;;;6045537;23;115549;-84
2023/01/01 12:41:11;;;;;;;11.63;6.47;;;14.10;54.70;;;;;;6035902;23;115205;-85
2023/01/01 12:43:52;;;;;;;10.65;6.20;;;14.10;54.70;;;;;;6034239;23;115084;-84
2023/01/01 12:47:02;;;;;;;11.18;6.10;;;14.20;54.00;;;;;;6081579;23;114436;-84
2023/01/01 12:49:52;;;;;;;9.70;5.93;;;14.20;53.90;;;;;;6064749;23;114839;-84
2023/01/01 12:52:58;;;;;;;12.25;8.07;;;14.20;54.10;;;;;;6080438;23;116259;-85
2023/01/01 12:56:04;;;;;;;12.10;6.90;;;14.20;54.20;;;;;;6017046;23;117414;-83
2023/01/01 12:59:04;;;;;;;11.77;6.82;;;14.10;54.20;;;;;;6057058;23;115042;-86
2023/01/01 13:01:33;;;;;;;12.80;6.43;;;14.00;54.30;;;;;;6062644;23;114504;-85
2023/01/01 13:04:13;;;;;;;9.43;6.15;;;13.90;54.50;;;;;;6056001;23;115028;-85
2023/01/01 13:06:47;;;;;;;11.20;7.03;;;13.90;54.50;;;;;;6032333;23;115146;-86
2023/01/01 13:09:23;;;;;;;10.40;5.93;;;13.80;54.40;;;;;;6082049;23;114703;-84
2023/01/01 13:11:54;;;;;;;10.95;6.20;;;13.80;54.50;;;;;;6009232;23;114952;-85
2023/01/01 13:14:21;;;;;;;8.70;5.57;;;13.70;54.30;;;;;;6031422;23;115289;-84